EWG17A EDDL-EDDC
Flight info
| Callsign | EWG17A |
|---|---|
| Flight time | 0h 48m |
| Altitude | 23000 |
| Route | NUDGO5Z NUDGO Z858 BERDI Z21 DRN |
| Aircraft | A320/M-SDE3FGHIRWY/LB1 |
Departure
| Time | 2026-05-06 16:30 |
|---|---|
| Airport | Düsseldorf Airport (EDDL) |
Arrival
| Time | 2026-05-06 17:19 |
|---|---|
| Airport | Dresden Airport (EDDC) |
| Time | Latitude | Longitude | Altitude | Speed | Heading |
|---|---|---|---|---|---|
| 2026-05-06 16:00 | 51.28106 | 6.76720 | 129 ft | 0 kts | 276° |
| 2026-05-06 16:19 | 51.28106 | 6.76723 | 128 ft | 2 kts | 276° |
| 2026-05-06 16:19 | 51.28100 | 6.76761 | 125 ft | 4 kts | 301° |
| 2026-05-06 16:19 | 51.28087 | 6.76789 | 124 ft | 4 kts | 334° |
| 2026-05-06 16:20 | 51.28064 | 6.76792 | 126 ft | 4 kts | 17° |
| 2026-05-06 16:20 | 51.28050 | 6.76785 | 125 ft | 0 kts | 17° |
| 2026-05-06 16:24 | 51.28051 | 6.76785 | 125 ft | 1 kts | 17° |
| 2026-05-06 16:24 | 51.28066 | 6.76793 | 127 ft | 7 kts | 17° |
| 2026-05-06 16:24 | 51.28142 | 6.76830 | 128 ft | 14 kts | 14° |
| 2026-05-06 16:24 | 51.28245 | 6.76850 | 129 ft | 16 kts | 6° |
| 2026-05-06 16:25 | 51.28343 | 6.76761 | 127 ft | 18 kts | 322° |
| 2026-05-06 16:25 | 51.28409 | 6.76617 | 126 ft | 17 kts | 255° |
| 2026-05-06 16:25 | 51.28333 | 6.76450 | 121 ft | 20 kts | 232° |
| 2026-05-06 16:25 | 51.28242 | 6.76258 | 128 ft | 22 kts | 233° |
| 2026-05-06 16:26 | 51.28147 | 6.76058 | 127 ft | 23 kts | 232° |
| 2026-05-06 16:26 | 51.28047 | 6.75848 | 128 ft | 24 kts | 233° |
| 2026-05-06 16:26 | 51.27940 | 6.75625 | 126 ft | 26 kts | 232° |
| 2026-05-06 16:26 | 51.27848 | 6.75430 | 126 ft | 16 kts | 233° |
| 2026-05-06 16:27 | 51.27883 | 6.75315 | 125 ft | 8 kts | 333° |
| 2026-05-06 16:27 | 51.27886 | 6.75312 | 122 ft | 0 kts | 333° |
| 2026-05-06 16:28 | 51.27889 | 6.75310 | 123 ft | 1 kts | 334° |
| 2026-05-06 16:28 | 51.27922 | 6.75284 | 122 ft | 9 kts | 334° |
| 2026-05-06 16:28 | 51.27990 | 6.75281 | 123 ft | 10 kts | 21° |
| 2026-05-06 16:28 | 51.28035 | 6.75356 | 124 ft | 5 kts | 53° |
| 2026-05-06 16:29 | 51.28039 | 6.75365 | 124 ft | 0 kts | 52° |
| 2026-05-06 16:29 | 51.28045 | 6.75376 | 124 ft | 8 kts | 52° |
| 2026-05-06 16:29 | 51.28229 | 6.75760 | 124 ft | 80 kts | 52° |
| 2026-05-06 16:29 | 51.28695 | 6.76736 | 129 ft | 139 kts | 53° |
| 2026-05-06 16:30 | 51.29326 | 6.78086 | 519 ft | 152 kts | 51° |
| 2026-05-06 16:30 | 51.29737 | 6.78997 | 951 ft | 152 kts | 50° |
| 2026-05-06 16:30 | 51.30611 | 6.80837 | 1729 ft | 166 kts | 49° |
| 2026-05-06 16:30 | 51.31361 | 6.82397 | 2066 ft | 188 kts | 50° |
| 2026-05-06 16:31 | 51.32207 | 6.84160 | 2400 ft | 212 kts | 50° |
| 2026-05-06 16:31 | 51.33142 | 6.86113 | 2826 ft | 236 kts | 50° |
| 2026-05-06 16:31 | 51.34157 | 6.88302 | 3481 ft | 251 kts | 52° |
| 2026-05-06 16:31 | 51.35063 | 6.90723 | 4342 ft | 259 kts | 69° |
| 2026-05-06 16:32 | 51.35242 | 6.93622 | 5189 ft | 270 kts | 96° |
| 2026-05-06 16:32 | 51.34938 | 6.96607 | 6115 ft | 273 kts | 98° |
| 2026-05-06 16:32 | 51.34622 | 6.99629 | 6945 ft | 278 kts | 98° |
| 2026-05-06 16:32 | 51.34315 | 7.02565 | 7750 ft | 282 kts | 98° |
| 2026-05-06 16:33 | 51.33997 | 7.05659 | 8630 ft | 285 kts | 97° |
| 2026-05-06 16:33 | 51.33680 | 7.08775 | 9504 ft | 288 kts | 98° |
| 2026-05-06 16:33 | 51.33355 | 7.11966 | 10186 ft | 298 kts | 97° |
| 2026-05-06 16:34 | 51.32708 | 7.18391 | 10798 ft | 334 kts | 99° |
| 2026-05-06 16:34 | 51.32384 | 7.22145 | 11354 ft | 346 kts | 99° |
| 2026-05-06 16:34 | 51.32095 | 7.25990 | 12029 ft | 353 kts | 98° |
| 2026-05-06 16:34 | 51.31818 | 7.29917 | 12755 ft | 358 kts | 98° |
| 2026-05-06 16:35 | 51.31540 | 7.33901 | 13478 ft | 363 kts | 98° |
| 2026-05-06 16:35 | 51.31180 | 7.37911 | 14114 ft | 366 kts | 104° |
| 2026-05-06 16:35 | 51.30547 | 7.41192 | 14677 ft | 367 kts | 114° |
| 2026-05-06 16:35 | 51.29515 | 7.44928 | 15362 ft | 369 kts | 116° |
| 2026-05-06 16:36 | 51.28582 | 7.48263 | 15951 ft | 371 kts | 116° |
| 2026-05-06 16:36 | 51.27526 | 7.52034 | 16612 ft | 374 kts | 116° |
| 2026-05-06 16:36 | 51.26472 | 7.55799 | 17254 ft | 376 kts | 116° |
| 2026-05-06 16:36 | 51.25397 | 7.59625 | 17908 ft | 379 kts | 115° |
| 2026-05-06 16:37 | 51.24317 | 7.63487 | 18498 ft | 383 kts | 114° |
| 2026-05-06 16:37 | 51.23543 | 7.67486 | 19016 ft | 389 kts | 103° |
| 2026-05-06 16:37 | 51.23290 | 7.71784 | 19570 ft | 394 kts | 90° |
| 2026-05-06 16:37 | 51.23605 | 7.76150 | 20138 ft | 399 kts | 78° |
| 2026-05-06 16:38 | 51.24470 | 7.80387 | 20685 ft | 403 kts | 69° |
| 2026-05-06 16:38 | 51.25411 | 7.84598 | 21266 ft | 405 kts | 73° |
| 2026-05-06 16:38 | 51.26221 | 7.88923 | 21836 ft | 407 kts | 76° |
| 2026-05-06 16:38 | 51.26954 | 7.93315 | 22399 ft | 410 kts | 77° |
| 2026-05-06 16:39 | 51.27662 | 7.97733 | 22766 ft | 412 kts | 77° |
| 2026-05-06 16:39 | 51.28372 | 8.02142 | 22832 ft | 404 kts | 76° |
| 2026-05-06 16:39 | 51.29086 | 8.06450 | 22834 ft | 400 kts | 76° |
| 2026-05-06 16:39 | 51.29806 | 8.10657 | 22836 ft | 397 kts | 76° |
| 2026-05-06 16:40 | 51.30545 | 8.14890 | 22822 ft | 395 kts | 75° |
| 2026-05-06 16:40 | 51.31291 | 8.19125 | 22831 ft | 397 kts | 75° |
| 2026-05-06 16:40 | 51.32045 | 8.23392 | 22835 ft | 398 kts | 75° |
| 2026-05-06 16:40 | 51.32791 | 8.27642 | 22823 ft | 398 kts | 76° |
| 2026-05-06 16:41 | 51.33534 | 8.31899 | 22832 ft | 398 kts | 76° |
| 2026-05-06 16:41 | 51.34276 | 8.36172 | 22827 ft | 398 kts | 76° |
| 2026-05-06 16:41 | 51.35011 | 8.40426 | 22827 ft | 398 kts | 76° |
| 2026-05-06 16:41 | 51.35744 | 8.44694 | 22825 ft | 398 kts | 76° |
| 2026-05-06 16:42 | 51.36471 | 8.48963 | 22831 ft | 398 kts | 76° |
| 2026-05-06 16:42 | 51.37187 | 8.53171 | 22835 ft | 398 kts | 76° |
| 2026-05-06 16:42 | 51.37913 | 8.57442 | 22829 ft | 398 kts | 76° |
| 2026-05-06 16:42 | 51.38640 | 8.61716 | 22829 ft | 398 kts | 76° |
| 2026-05-06 16:43 | 51.39368 | 8.65993 | 22813 ft | 399 kts | 76° |
| 2026-05-06 16:43 | 51.40104 | 8.70317 | 22831 ft | 405 kts | 76° |
| 2026-05-06 16:43 | 51.40639 | 8.74742 | 22831 ft | 405 kts | 86° |
| 2026-05-06 16:43 | 51.40694 | 8.79238 | 22832 ft | 402 kts | 97° |
| 2026-05-06 16:44 | 51.40363 | 8.83670 | 22830 ft | 401 kts | 100° |
| 2026-05-06 16:44 | 51.40007 | 8.88041 | 22830 ft | 401 kts | 100° |
| 2026-05-06 16:44 | 51.39653 | 8.92474 | 22828 ft | 401 kts | 100° |
| 2026-05-06 16:44 | 51.39302 | 8.96906 | 22826 ft | 401 kts | 100° |
| 2026-05-06 16:45 | 51.38951 | 9.01347 | 22825 ft | 401 kts | 100° |
| 2026-05-06 16:45 | 51.38613 | 9.05777 | 22819 ft | 402 kts | 97° |
| 2026-05-06 16:45 | 51.38598 | 9.10258 | 22820 ft | 404 kts | 89° |
| 2026-05-06 16:45 | 51.38741 | 9.14746 | 22814 ft | 404 kts | 89° |
| 2026-05-06 16:46 | 51.38876 | 9.19180 | 22814 ft | 404 kts | 89° |
| 2026-05-06 16:46 | 51.39007 | 9.23665 | 22806 ft | 404 kts | 89° |
| 2026-05-06 16:46 | 51.39134 | 9.28162 | 22805 ft | 404 kts | 90° |
| 2026-05-06 16:46 | 51.39257 | 9.32650 | 22806 ft | 404 kts | 90° |
| 2026-05-06 16:47 | 51.39382 | 9.37144 | 22807 ft | 404 kts | 90° |
| 2026-05-06 16:47 | 51.39509 | 9.41636 | 22805 ft | 404 kts | 90° |
| 2026-05-06 16:47 | 51.39634 | 9.46126 | 22814 ft | 404 kts | 90° |
| 2026-05-06 16:47 | 51.39755 | 9.50629 | 22808 ft | 404 kts | 90° |
| 2026-05-06 16:48 | 51.39872 | 9.55070 | 22808 ft | 404 kts | 90° |
| 2026-05-06 16:48 | 51.39988 | 9.59566 | 22809 ft | 404 kts | 90° |
| 2026-05-06 16:48 | 51.40102 | 9.64055 | 22784 ft | 404 kts | 90° |
| 2026-05-06 16:48 | 51.40217 | 9.68551 | 22780 ft | 405 kts | 90° |
| 2026-05-06 16:49 | 51.40333 | 9.73075 | 22782 ft | 406 kts | 90° |
| 2026-05-06 16:49 | 51.40447 | 9.77590 | 22803 ft | 407 kts | 90° |
| 2026-05-06 16:49 | 51.40558 | 9.82116 | 22804 ft | 406 kts | 90° |
| 2026-05-06 16:49 | 51.40668 | 9.86630 | 22806 ft | 406 kts | 90° |
| 2026-05-06 16:50 | 51.40776 | 9.91145 | 22808 ft | 406 kts | 90° |
| 2026-05-06 16:50 | 51.40879 | 9.95673 | 22807 ft | 406 kts | 90° |
| 2026-05-06 16:50 | 51.40979 | 10.00182 | 22806 ft | 405 kts | 90° |
| 2026-05-06 16:50 | 51.41045 | 10.03172 | 22794 ft | 405 kts | 90° |
| 2026-05-06 16:51 | 51.41176 | 10.09142 | 22794 ft | 405 kts | 90° |
| 2026-05-06 16:51 | 51.41274 | 10.13654 | 22767 ft | 405 kts | 91° |
| 2026-05-06 16:51 | 51.41371 | 10.18165 | 22765 ft | 406 kts | 91° |
| 2026-05-06 16:51 | 51.41467 | 10.22693 | 22760 ft | 407 kts | 91° |
| 2026-05-06 16:52 | 51.41561 | 10.27227 | 22758 ft | 407 kts | 91° |
| 2026-05-06 16:52 | 51.41651 | 10.31762 | 22759 ft | 408 kts | 91° |
| 2026-05-06 16:52 | 51.41740 | 10.36303 | 22760 ft | 408 kts | 91° |
| 2026-05-06 16:52 | 51.41827 | 10.40839 | 22758 ft | 408 kts | 91° |
| 2026-05-06 16:53 | 51.41910 | 10.45321 | 22757 ft | 408 kts | 91° |
| 2026-05-06 16:53 | 51.41987 | 10.49870 | 22759 ft | 408 kts | 93° |
| 2026-05-06 16:53 | 51.41773 | 10.54368 | 22760 ft | 404 kts | 102° |
| 2026-05-06 16:53 | 51.41335 | 10.58818 | 22762 ft | 404 kts | 102° |
| 2026-05-06 16:54 | 51.40902 | 10.63258 | 22756 ft | 404 kts | 102° |
| 2026-05-06 16:54 | 51.40468 | 10.67704 | 22763 ft | 403 kts | 102° |
| 2026-05-06 16:54 | 51.40034 | 10.72145 | 22769 ft | 403 kts | 102° |
| 2026-05-06 16:54 | 51.39599 | 10.76570 | 22773 ft | 402 kts | 102° |
| 2026-05-06 16:55 | 51.39167 | 10.80936 | 22767 ft | 402 kts | 102° |
| 2026-05-06 16:55 | 51.38725 | 10.85359 | 22765 ft | 402 kts | 102° |
| 2026-05-06 16:55 | 51.38285 | 10.89762 | 22765 ft | 402 kts | 102° |
| 2026-05-06 16:55 | 51.38022 | 10.94233 | 22763 ft | 405 kts | 93° |
| 2026-05-06 16:56 | 51.38158 | 10.98753 | 22762 ft | 406 kts | 89° |
| 2026-05-06 16:56 | 51.38338 | 11.03256 | 22760 ft | 406 kts | 89° |
| 2026-05-06 16:56 | 51.38508 | 11.07781 | 22747 ft | 406 kts | 89° |
| 2026-05-06 16:56 | 51.38670 | 11.12283 | 22760 ft | 405 kts | 89° |
| 2026-05-06 16:57 | 51.38831 | 11.16783 | 22773 ft | 405 kts | 89° |
| 2026-05-06 16:57 | 51.38993 | 11.21279 | 22779 ft | 404 kts | 89° |
| 2026-05-06 16:57 | 51.39152 | 11.25782 | 22781 ft | 404 kts | 89° |
| 2026-05-06 16:57 | 51.39304 | 11.30212 | 22773 ft | 404 kts | 89° |
| 2026-05-06 16:58 | 51.39460 | 11.34700 | 22778 ft | 403 kts | 89° |
| 2026-05-06 16:58 | 51.39612 | 11.39175 | 22781 ft | 403 kts | 89° |
| 2026-05-06 16:58 | 51.39759 | 11.43652 | 22780 ft | 403 kts | 89° |
| 2026-05-06 16:58 | 51.39906 | 11.48137 | 22778 ft | 403 kts | 89° |
| 2026-05-06 16:59 | 51.40055 | 11.52617 | 22777 ft | 403 kts | 89° |
| 2026-05-06 16:59 | 51.40204 | 11.57103 | 22766 ft | 403 kts | 90° |
| 2026-05-06 16:59 | 51.40353 | 11.61573 | 22773 ft | 402 kts | 90° |
| 2026-05-06 16:59 | 51.40500 | 11.66050 | 22769 ft | 402 kts | 90° |
| 2026-05-06 17:00 | 51.40642 | 11.70457 | 22769 ft | 402 kts | 90° |
| 2026-05-06 17:00 | 51.40784 | 11.74922 | 22776 ft | 401 kts | 90° |
| 2026-05-06 17:00 | 51.40923 | 11.79363 | 22787 ft | 401 kts | 90° |
| 2026-05-06 17:00 | 51.41059 | 11.83820 | 22781 ft | 401 kts | 90° |
| 2026-05-06 17:01 | 51.41189 | 11.88279 | 22784 ft | 401 kts | 90° |
| 2026-05-06 17:01 | 51.41315 | 11.92606 | 22786 ft | 401 kts | 90° |
| 2026-05-06 17:01 | 51.41428 | 11.96416 | 22787 ft | 401 kts | 90° |
| 2026-05-06 17:01 | 51.41560 | 12.00870 | 22785 ft | 401 kts | 90° |
| 2026-05-06 17:02 | 51.41693 | 12.05323 | 22708 ft | 398 kts | 90° |
| 2026-05-06 17:02 | 51.41824 | 12.09686 | 22407 ft | 389 kts | 90° |
| 2026-05-06 17:02 | 51.41946 | 12.13713 | 22162 ft | 383 kts | 90° |
| 2026-05-06 17:02 | 51.42030 | 12.16563 | 21985 ft | 382 kts | 90° |
| 2026-05-06 17:03 | 51.42143 | 12.20724 | 21695 ft | 378 kts | 91° |
| 2026-05-06 17:03 | 51.42251 | 12.24913 | 21239 ft | 375 kts | 91° |
| 2026-05-06 17:03 | 51.42356 | 12.29072 | 20765 ft | 374 kts | 91° |
| 2026-05-06 17:03 | 51.42460 | 12.33229 | 20290 ft | 373 kts | 91° |
| 2026-05-06 17:04 | 51.42562 | 12.37377 | 19819 ft | 372 kts | 91° |
| 2026-05-06 17:04 | 51.42622 | 12.39831 | 19540 ft | 371 kts | 91° |
| 2026-05-06 17:04 | 51.42718 | 12.43780 | 19095 ft | 370 kts | 91° |
| 2026-05-06 17:04 | 51.42819 | 12.47855 | 18635 ft | 370 kts | 90° |
| 2026-05-06 17:05 | 51.42775 | 12.51951 | 18173 ft | 366 kts | 100° |
| 2026-05-06 17:05 | 51.42225 | 12.55887 | 17672 ft | 360 kts | 113° |
| 2026-05-06 17:05 | 51.41211 | 12.59422 | 17269 ft | 351 kts | 125° |
| 2026-05-06 17:05 | 51.40338 | 12.61665 | 16987 ft | 348 kts | 126° |
| 2026-05-06 17:06 | 51.39128 | 12.64760 | 16596 ft | 346 kts | 126° |
| 2026-05-06 17:06 | 51.37859 | 12.68013 | 16189 ft | 343 kts | 126° |
| 2026-05-06 17:06 | 51.36601 | 12.71248 | 15800 ft | 341 kts | 126° |
| 2026-05-06 17:06 | 51.35369 | 12.74421 | 15394 ft | 339 kts | 126° |
| 2026-05-06 17:07 | 51.34131 | 12.77609 | 14995 ft | 335 kts | 125° |
| 2026-05-06 17:07 | 51.32963 | 12.80610 | 14613 ft | 322 kts | 126° |
| 2026-05-06 17:07 | 51.31800 | 12.83589 | 14251 ft | 311 kts | 126° |
| 2026-05-06 17:07 | 51.31040 | 12.85525 | 14015 ft | 311 kts | 126° |
| 2026-05-06 17:08 | 51.29748 | 12.88809 | 13582 ft | 312 kts | 126° |
| 2026-05-06 17:08 | 51.28596 | 12.91745 | 13167 ft | 312 kts | 126° |
| 2026-05-06 17:08 | 51.27448 | 12.94681 | 12785 ft | 311 kts | 126° |
| 2026-05-06 17:08 | 51.26308 | 12.97601 | 12386 ft | 310 kts | 126° |
| 2026-05-06 17:09 | 51.25183 | 13.00476 | 12016 ft | 309 kts | 126° |
| 2026-05-06 17:09 | 51.24046 | 13.03380 | 11636 ft | 307 kts | 126° |
| 2026-05-06 17:09 | 51.22917 | 13.06257 | 11238 ft | 306 kts | 126° |
| 2026-05-06 17:09 | 51.21784 | 13.09133 | 10857 ft | 305 kts | 126° |
| 2026-05-06 17:10 | 51.20652 | 13.11994 | 10462 ft | 304 kts | 126° |
| 2026-05-06 17:10 | 51.19527 | 13.14841 | 10069 ft | 304 kts | 126° |
| 2026-05-06 17:10 | 51.18408 | 13.17672 | 9712 ft | 296 kts | 126° |
| 2026-05-06 17:10 | 51.17325 | 13.20413 | 9418 ft | 291 kts | 126° |
| 2026-05-06 17:11 | 51.16244 | 13.23143 | 9031 ft | 293 kts | 126° |
| 2026-05-06 17:11 | 51.15255 | 13.25635 | 8681 ft | 291 kts | 126° |
| 2026-05-06 17:11 | 51.14161 | 13.28378 | 8163 ft | 293 kts | 126° |
| 2026-05-06 17:11 | 51.13083 | 13.31080 | 7909 ft | 283 kts | 126° |
| 2026-05-06 17:12 | 51.12076 | 13.33607 | 7507 ft | 272 kts | 126° |
| 2026-05-06 17:12 | 51.11080 | 13.36076 | 7124 ft | 260 kts | 129° |
| 2026-05-06 17:12 | 51.09917 | 13.38209 | 6601 ft | 252 kts | 138° |
| 2026-05-06 17:12 | 51.08693 | 13.40176 | 6029 ft | 249 kts | 137° |
| 2026-05-06 17:13 | 51.07885 | 13.41479 | 5611 ft | 249 kts | 138° |
| 2026-05-06 17:13 | 51.06674 | 13.43434 | 5012 ft | 248 kts | 137° |
| 2026-05-06 17:13 | 51.05502 | 13.45323 | 4856 ft | 237 kts | 137° |
| 2026-05-06 17:13 | 51.03985 | 13.47765 | 4740 ft | 229 kts | 138° |
| 2026-05-06 17:14 | 51.02874 | 13.49559 | 4645 ft | 227 kts | 137° |
| 2026-05-06 17:14 | 51.01769 | 13.51339 | 4535 ft | 224 kts | 136° |
| 2026-05-06 17:14 | 51.00705 | 13.53143 | 4374 ft | 226 kts | 128° |
| 2026-05-06 17:14 | 51.00222 | 13.54619 | 4143 ft | 229 kts | 107° |
| 2026-05-06 17:15 | 51.00130 | 13.57086 | 3961 ft | 223 kts | 79° |
| 2026-05-06 17:15 | 51.00749 | 13.59284 | 3750 ft | 218 kts | 51° |
| 2026-05-06 17:15 | 51.01842 | 13.60932 | 3489 ft | 216 kts | 39° |
| 2026-05-06 17:15 | 51.03352 | 13.62974 | 3118 ft | 215 kts | 40° |
| 2026-05-06 17:16 | 51.04488 | 13.64524 | 2826 ft | 213 kts | 40° |
| 2026-05-06 17:16 | 51.05223 | 13.65530 | 2640 ft | 208 kts | 40° |
| 2026-05-06 17:16 | 51.06304 | 13.67009 | 2366 ft | 201 kts | 40° |
| 2026-05-06 17:16 | 51.07333 | 13.68420 | 2127 ft | 189 kts | 40° |
| 2026-05-06 17:17 | 51.08300 | 13.69746 | 1858 ft | 178 kts | 40° |
| 2026-05-06 17:17 | 51.09199 | 13.70979 | 1627 ft | 163 kts | 40° |
| 2026-05-06 17:17 | 51.10020 | 13.72106 | 1404 ft | 150 kts | 39° |
| 2026-05-06 17:17 | 51.10779 | 13.73149 | 1242 ft | 141 kts | 40° |
| 2026-05-06 17:18 | 51.11514 | 13.74159 | 1066 ft | 139 kts | 38° |
| 2026-05-06 17:18 | 51.12243 | 13.75151 | 854 ft | 138 kts | 38° |
| 2026-05-06 17:18 | 51.12937 | 13.76103 | 759 ft | 121 kts | 39° |
| 2026-05-06 17:18 | 51.13375 | 13.76715 | 742 ft | 50 kts | 40° |
| 2026-05-06 17:19 | 51.13630 | 13.77064 | 733 ft | 46 kts | 41° |
| 2026-05-06 17:19 | 51.13852 | 13.77369 | 723 ft | 34 kts | 39° |
| 2026-05-06 17:19 | 51.13881 | 13.77545 | 721 ft | 14 kts | 148° |
| 2026-05-06 17:19 | 51.13821 | 13.77669 | 717 ft | 15 kts | 135° |
| 2026-05-06 17:20 | 51.13736 | 13.77694 | 717 ft | 12 kts | 217° |
| 2026-05-06 17:20 | 51.13684 | 13.77623 | 719 ft | 8 kts | 221° |
| 2026-05-06 17:20 | 51.13654 | 13.77581 | 720 ft | 4 kts | 221° |
| 2026-05-06 17:20 | 51.13613 | 13.77524 | 720 ft | 13 kts | 221° |
| 2026-05-06 17:21 | 51.13523 | 13.77400 | 726 ft | 20 kts | 221° |
| 2026-05-06 17:21 | 51.13428 | 13.77269 | 732 ft | 19 kts | 220° |
| 2026-05-06 17:21 | 51.13320 | 13.77120 | 741 ft | 22 kts | 221° |
| 2026-05-06 17:21 | 51.13192 | 13.76945 | 744 ft | 26 kts | 221° |
| 2026-05-06 17:22 | 51.13057 | 13.76758 | 749 ft | 26 kts | 221° |
| 2026-05-06 17:22 | 51.12920 | 13.76569 | 752 ft | 25 kts | 221° |
| 2026-05-06 17:22 | 51.12828 | 13.76442 | 753 ft | 14 kts | 221° |
| 2026-05-06 17:22 | 51.12759 | 13.76459 | 754 ft | 11 kts | 133° |
| 2026-05-06 17:23 | 51.12708 | 13.76552 | 753 ft | 11 kts | 130° |
| 2026-05-06 17:23 | 51.12681 | 13.76604 | 749 ft | 2 kts | 131° |
| 2026-05-06 17:23 | 51.12676 | 13.76605 | 749 ft | 0 kts | 162° |
| 2026-05-06 17:23 | 51.12647 | 13.76567 | 751 ft | 7 kts | 223° |
| 2026-05-06 17:24 | 51.12630 | 13.76545 | 750 ft | 1 kts | 220° |
| 2026-05-06 17:24 | 51.12626 | 13.76540 | 750 ft | 0 kts | 220° |